createdAt,value
2018-06-20T00:02:05.426Z,17.96
2018-06-20T00:05:09.436Z,17.97
2018-06-20T00:08:13.174Z,17.97
2018-06-20T00:11:16.820Z,17.99
2018-06-20T00:14:20.477Z,17.93
2018-06-20T00:17:24.136Z,17.98
2018-06-20T00:20:27.781Z,17.95
2018-06-20T00:23:31.356Z,17.95
2018-06-20T00:26:35.052Z,17.95
2018-06-20T00:29:38.762Z,17.94
2018-06-20T00:32:42.353Z,17.94
2018-06-20T00:35:45.981Z,17.93
2018-06-20T00:38:49.665Z,17.90
2018-06-20T00:41:53.331Z,17.89
2018-06-20T00:44:56.901Z,17.88
2018-06-20T00:48:00.620Z,17.88
2018-06-20T00:51:04.227Z,17.85
2018-06-20T00:54:07.847Z,17.88
2018-06-20T00:57:11.518Z,17.89
2018-06-20T01:00:15.202Z,17.88
2018-06-20T01:03:18.915Z,17.88
2018-06-20T01:06:22.917Z,17.84
2018-06-20T01:09:26.615Z,17.85
2018-06-20T01:12:30.458Z,17.85
2018-06-20T01:15:34.168Z,17.83
2018-06-20T01:18:37.736Z,17.81
2018-06-20T01:21:41.501Z,17.80
2018-06-20T01:24:45.263Z,17.79
2018-06-20T01:27:48.868Z,17.77
2018-06-20T01:30:53.278Z,17.75
2018-06-20T01:33:57.046Z,17.76
2018-06-20T01:37:00.728Z,17.75
2018-06-20T01:40:04.468Z,17.74
2018-06-20T01:43:08.273Z,17.80
2018-06-20T01:46:11.875Z,17.72
2018-06-20T01:49:15.454Z,17.73
2018-06-20T01:52:19.162Z,17.70
2018-06-20T01:55:22.838Z,17.73
2018-06-20T01:58:26.527Z,17.84
2018-06-20T02:01:30.113Z,17.73
2018-06-20T02:04:33.723Z,17.66
2018-06-20T02:07:37.437Z,17.67
2018-06-20T02:10:41.173Z,17.66
2018-06-20T02:13:44.788Z,17.63
2018-06-20T02:16:48.493Z,17.63
2018-06-20T02:19:52.142Z,17.62
2018-06-20T02:22:55.786Z,17.61
2018-06-20T02:25:59.606Z,17.65
2018-06-20T02:29:03.206Z,17.64
2018-06-20T02:32:06.853Z,17.60
2018-06-20T02:35:10.529Z,17.59
2018-06-20T02:38:14.224Z,17.62
2018-06-20T02:41:17.845Z,17.56
2018-06-20T02:44:21.811Z,17.63
2018-06-20T02:47:30.427Z,17.62
2018-06-20T02:50:34.133Z,17.63
2018-06-20T02:53:37.754Z,17.76
2018-06-20T02:56:41.317Z,17.67
2018-06-20T02:59:45.034Z,17.66
2018-06-20T03:02:48.722Z,17.66
2018-06-20T03:05:52.468Z,17.66
2018-06-20T03:09:02.089Z,17.66
2018-06-20T03:12:05.805Z,17.68
2018-06-20T03:15:09.469Z,17.68
2018-06-20T03:18:13.119Z,17.73
2018-06-20T03:21:16.802Z,17.69
2018-06-20T03:24:20.589Z,17.74
2018-06-20T03:27:24.216Z,17.68
2018-06-20T03:30:27.854Z,17.72
2018-06-20T03:33:31.463Z,17.70
2018-06-20T03:36:35.260Z,17.64
2018-06-20T03:39:38.918Z,17.74
2018-06-20T03:42:42.490Z,17.77
2018-06-20T03:45:46.188Z,17.78
2018-06-20T03:48:49.875Z,17.76
2018-06-20T03:51:53.463Z,17.79
2018-06-20T03:54:57.258Z,17.81
2018-06-20T03:58:00.980Z,17.80
2018-06-20T04:01:04.664Z,17.81
2018-06-20T04:04:08.344Z,17.88
2018-06-20T04:07:12.028Z,17.92
2018-06-20T04:10:15.630Z,17.98
2018-06-20T04:13:19.374Z,18.10
2018-06-20T04:16:23.108Z,18.15
2018-06-20T04:19:26.964Z,18.70
2018-06-20T04:22:30.824Z,19.60
2018-06-20T04:25:34.570Z,20.72
2018-06-20T04:28:38.585Z,21.28
2018-06-20T04:31:42.164Z,22.16
2018-06-20T04:34:45.928Z,22.58
2018-06-20T04:37:49.688Z,23.37
2018-06-20T04:40:53.328Z,23.47
2018-06-20T04:43:57.000Z,22.66
2018-06-20T04:47:00.714Z,21.65
2018-06-20T04:50:04.545Z,20.93
2018-06-20T04:53:08.330Z,20.45
2018-06-20T04:56:11.915Z,20.34
2018-06-20T04:59:15.548Z,20.13
2018-06-20T05:02:19.218Z,19.80
2018-06-20T05:05:22.960Z,19.84
2018-06-20T05:08:26.599Z,19.60
2018-06-20T05:11:30.734Z,19.80
2018-06-20T05:14:34.383Z,19.71
2018-06-20T05:17:38.076Z,19.41
2018-06-20T05:20:41.805Z,19.48
2018-06-20T05:23:45.600Z,19.47
2018-06-20T05:26:49.249Z,19.13
2018-06-20T05:29:55.815Z,19.30
2018-06-20T05:33:00.344Z,19.32
2018-06-20T05:36:04.050Z,19.47
2018-06-20T05:39:09.543Z,19.50
2018-06-20T05:42:13.214Z,19.76
2018-06-20T05:45:16.918Z,19.82
2018-06-20T05:48:20.601Z,19.72
2018-06-20T05:51:24.189Z,19.66
2018-06-20T05:54:27.786Z,19.55
2018-06-20T05:57:31.442Z,19.65
2018-06-20T06:00:35.079Z,19.60
2018-06-20T06:03:38.656Z,19.57
2018-06-20T06:06:42.390Z,19.65
2018-06-20T06:09:46.006Z,19.70
2018-06-20T06:12:49.621Z,19.46
2018-06-20T06:15:53.336Z,19.50
2018-06-20T06:18:57.198Z,19.53
2018-06-20T06:22:00.725Z,19.61
2018-06-20T06:25:04.571Z,19.53
2018-06-20T06:28:08.100Z,19.83
2018-06-20T06:31:11.764Z,19.76
2018-06-20T06:34:15.361Z,19.99
2018-06-20T06:37:18.979Z,19.84
2018-06-20T06:40:22.567Z,20.01
2018-06-20T06:43:26.195Z,20.03
2018-06-20T06:46:29.912Z,20.41
2018-06-20T06:49:33.527Z,20.41
2018-06-20T06:52:37.211Z,20.36
2018-06-20T06:55:40.892Z,20.42
2018-06-20T06:58:44.490Z,20.65
2018-06-20T07:01:48.272Z,20.54
2018-06-20T07:04:51.885Z,20.84
2018-06-20T07:07:55.601Z,20.88
2018-06-20T07:10:59.256Z,20.83
2018-06-20T07:14:02.892Z,20.74
2018-06-20T07:17:06.650Z,20.78
2018-06-20T07:20:10.605Z,20.85
2018-06-20T07:23:14.191Z,20.80
2018-06-20T07:26:17.986Z,20.93
2018-06-20T07:29:21.748Z,21.05
2018-06-20T07:32:25.463Z,21.15
2018-06-20T07:35:29.304Z,20.99
2018-06-20T07:38:32.801Z,21.46
2018-06-20T07:41:36.881Z,21.60
2018-06-20T07:44:40.517Z,21.68
2018-06-20T07:47:44.170Z,21.88
2018-06-20T07:50:47.909Z,22.34
2018-06-20T07:53:51.546Z,22.70
2018-06-20T07:56:55.255Z,22.75
2018-06-20T08:00:04.020Z,23.40
2018-06-20T08:03:14.892Z,23.49
2018-06-20T08:06:23.712Z,22.84
2018-06-20T08:09:32.504Z,22.76
2018-06-20T08:12:41.327Z,22.08
2018-06-20T08:15:50.256Z,22.32
2018-06-20T08:19:58.912Z,22.24
2018-06-20T08:23:02.568Z,22.38
2018-06-20T08:26:06.511Z,22.54
2018-06-20T08:29:10.082Z,22.65
2018-06-20T08:32:13.942Z,22.90
2018-06-20T08:35:17.631Z,23.17
2018-06-20T08:38:21.234Z,23.46
2018-06-20T08:41:24.932Z,23.74
2018-06-20T08:44:28.576Z,23.74
2018-06-20T08:47:32.233Z,23.41
2018-06-20T08:50:35.842Z,22.97
2018-06-20T08:53:39.602Z,23.16
2018-06-20T08:56:43.398Z,23.37
2018-06-20T08:59:47.213Z,23.14
2018-06-20T09:02:50.883Z,22.81
2018-06-20T09:05:59.788Z,22.71
2018-06-20T09:09:08.755Z,22.99
2018-06-20T09:12:17.650Z,23.16
2018-06-20T09:15:26.796Z,22.76
2018-06-20T09:18:35.776Z,22.26
2018-06-20T09:21:39.413Z,22.20
2018-06-20T09:24:43.229Z,22.35
2018-06-20T09:27:46.831Z,22.53
2018-06-20T09:30:50.466Z,22.56
2018-06-20T09:33:54.097Z,22.77
2018-06-20T09:36:57.811Z,22.61
2018-06-20T09:40:01.539Z,22.64
2018-06-20T09:43:05.289Z,22.96
2018-06-20T09:46:08.892Z,23.05
2018-06-20T09:49:12.612Z,23.52
2018-06-20T09:52:16.244Z,23.83
2018-06-20T09:55:19.826Z,23.59
2018-06-20T09:58:23.557Z,23.27
2018-06-20T10:01:32.403Z,23.61
2018-06-20T10:04:41.200Z,24.09
2018-06-20T10:07:50.207Z,23.88
2018-06-20T10:10:59.061Z,23.97
2018-06-20T10:14:03.100Z,24.38
2018-06-20T10:17:06.727Z,24.11
2018-06-20T10:20:41.133Z,24.70
2018-06-20T10:23:44.924Z,24.49
2018-06-20T10:26:48.551Z,24.50
2018-06-20T10:29:52.198Z,24.38
2018-06-20T10:32:55.792Z,24.13
2018-06-20T10:35:59.570Z,24.41
2018-06-20T10:39:03.462Z,24.56
2018-06-20T10:42:07.153Z,24.43
2018-06-20T10:45:15.996Z,24.65
2018-06-20T10:48:19.688Z,24.41
2018-06-20T10:51:23.299Z,24.30
2018-06-20T10:54:26.899Z,24.91
2018-06-20T10:57:35.737Z,25.24
2018-06-20T11:00:44.588Z,25.13
2018-06-20T11:03:53.376Z,25.14
2018-06-20T11:07:02.350Z,25.54
2018-06-20T11:10:11.104Z,24.95
2018-06-20T11:13:21.024Z,24.66
2018-06-20T11:16:24.710Z,25.14
2018-06-20T11:19:28.525Z,25.07
2018-06-20T11:22:32.115Z,24.83
2018-06-20T11:25:35.878Z,25.52
2018-06-20T11:28:39.648Z,25.75
2018-06-20T11:31:43.459Z,26.35
2018-06-20T11:34:47.105Z,26.50
2018-06-20T11:37:51.277Z,25.67
2018-06-20T11:40:54.883Z,25.77
2018-06-20T11:43:58.519Z,25.89
2018-06-20T11:47:07.429Z,25.28
2018-06-20T11:50:12.473Z,25.77
2018-06-20T11:53:16.109Z,26.17
2018-06-20T11:56:19.832Z,25.77
2018-06-20T11:59:28.882Z,25.64
2018-06-20T12:02:37.908Z,25.51
2018-06-20T12:05:46.850Z,25.51
2018-06-20T12:08:55.773Z,26.38
2018-06-20T12:12:04.703Z,26.89
2018-06-20T12:15:13.729Z,25.72
2018-06-20T12:18:22.715Z,26.13
2018-06-20T12:21:31.620Z,26.20
2018-06-20T12:24:40.568Z,26.57
2018-06-20T12:27:49.539Z,26.65
2018-06-20T12:30:58.508Z,26.83
2018-06-20T12:34:07.382Z,26.36
2018-06-20T12:37:16.184Z,25.71
2018-06-20T12:40:24.715Z,25.86
2018-06-20T12:43:33.743Z,25.65
2018-06-20T12:46:48.771Z,25.81
2018-06-20T12:49:56.990Z,26.43
2018-06-20T12:53:00.625Z,26.25
2018-06-20T12:56:04.264Z,26.21
2018-06-20T12:59:07.967Z,26.45
2018-06-20T13:02:11.571Z,26.32
2018-06-20T13:05:15.541Z,26.38
2018-06-20T13:08:19.296Z,26.20
2018-06-20T13:11:22.997Z,26.77
2018-06-20T13:14:26.645Z,26.52
2018-06-20T13:17:30.560Z,26.41
2018-06-20T13:20:34.157Z,27.08
2018-06-20T13:23:37.860Z,26.22
2018-06-20T13:26:41.599Z,26.08
2018-06-20T13:29:45.349Z,25.95
2018-06-20T13:32:54.316Z,26.22
2018-06-20T13:36:03.080Z,26.65
2018-06-20T13:39:13.189Z,26.89
2018-06-20T13:42:21.932Z,27.01
2018-06-20T13:45:30.779Z,27.23
2018-06-20T13:48:35.541Z,27.31
2018-06-20T13:51:39.126Z,27.42
2018-06-20T13:54:42.704Z,27.54
2018-06-20T13:57:46.314Z,27.27
2018-06-20T14:00:50.060Z,27.19
2018-06-20T14:03:53.676Z,27.27
2018-06-20T14:06:57.345Z,27.26
2018-06-20T14:10:00.957Z,27.50
2018-06-20T14:13:04.756Z,27.70
2018-06-20T14:16:08.400Z,27.59
2018-06-20T14:19:12.079Z,27.29
2018-06-20T14:22:15.780Z,27.50
2018-06-20T14:25:19.611Z,28.02
2018-06-20T14:28:23.290Z,28.01
2018-06-20T14:31:32.150Z,27.44
2018-06-20T14:34:40.984Z,27.86
2018-06-20T14:37:49.927Z,28.06
2018-06-20T14:40:58.747Z,28.31
2018-06-20T14:44:05.293Z,27.86
2018-06-20T14:47:08.948Z,27.74
2018-06-20T14:50:12.743Z,28.00
2018-06-20T14:53:16.356Z,27.45
2018-06-20T14:56:20.092Z,27.00
2018-06-20T14:59:23.786Z,27.16
2018-06-20T15:02:27.413Z,27.44
2018-06-20T15:05:31.162Z,27.78
2018-06-20T15:08:35.062Z,28.19
2018-06-20T15:11:39.152Z,27.82
2018-06-20T15:14:42.837Z,27.40
2018-06-20T15:17:46.515Z,27.63
2018-06-20T15:20:50.225Z,27.68
2018-06-20T15:23:54.062Z,27.47
2018-06-20T15:27:02.837Z,27.74
2018-06-20T15:30:12.730Z,27.94
2018-06-20T15:33:21.627Z,27.91
2018-06-20T15:36:30.440Z,27.53
2018-06-20T15:39:34.018Z,27.64
2018-06-20T15:42:37.828Z,27.47
2018-06-20T15:45:41.533Z,27.46
2018-06-20T15:48:45.786Z,27.44
2018-06-20T15:51:49.391Z,27.44
2018-06-20T15:54:53.045Z,27.35
2018-06-20T15:57:56.680Z,27.06
2018-06-20T16:01:00.345Z,27.25
2018-06-20T16:04:04.147Z,27.29
2018-06-20T16:07:07.859Z,26.96
2018-06-20T16:10:15.814Z,26.79
2018-06-20T16:13:19.502Z,26.73
2018-06-20T16:16:23.102Z,26.83
2018-06-20T16:19:31.942Z,27.05
2018-06-20T16:22:40.757Z,27.39
2018-06-20T16:25:49.796Z,27.35
2018-06-20T16:28:58.591Z,27.41
2018-06-20T16:32:02.256Z,27.35
2018-06-20T16:35:05.965Z,27.23
2018-06-20T16:38:09.625Z,27.35
2018-06-20T16:41:13.275Z,27.21
2018-06-20T16:44:16.985Z,27.28
2018-06-20T16:47:20.851Z,27.32
2018-06-20T16:50:24.618Z,27.31
2018-06-20T16:53:28.247Z,27.45
2018-06-20T16:56:32.070Z,27.73
2018-06-20T16:59:35.820Z,28.50
2018-06-20T17:02:40.943Z,29.03
2018-06-20T17:05:44.532Z,29.61
2018-06-20T17:08:48.233Z,29.76
2018-06-20T17:11:56.961Z,29.17
2018-06-20T17:15:05.773Z,29.04
2018-06-20T17:20:19.863Z,29.95
2018-06-20T17:23:28.995Z,30.24
2018-06-20T17:26:32.801Z,31.63
2018-06-20T17:29:36.471Z,31.38
2018-06-20T17:32:40.118Z,30.99
2018-06-20T17:35:43.832Z,31.56
2018-06-20T17:38:47.574Z,30.93
2018-06-20T17:41:51.258Z,30.93
2018-06-20T17:44:55.012Z,30.89
2018-06-20T17:47:58.687Z,31.59
2018-06-20T17:51:02.459Z,30.79
2018-06-20T17:54:06.351Z,30.90
2018-06-20T17:57:10.036Z,31.30
2018-06-20T18:00:13.746Z,31.11
2018-06-20T18:03:17.422Z,30.76
2018-06-20T18:06:26.306Z,30.45
2018-06-20T18:09:35.393Z,30.12
2018-06-20T18:12:44.245Z,28.74
2018-06-20T18:17:56.418Z,28.27
2018-06-20T18:21:00.166Z,27.19
2018-06-20T18:24:03.964Z,27.07
2018-06-20T18:27:07.633Z,27.27
2018-06-20T18:30:11.363Z,27.11
2018-06-20T18:33:15.025Z,26.91
2018-06-20T18:36:18.817Z,26.53
2018-06-20T18:39:22.553Z,26.16
2018-06-20T18:42:26.253Z,25.91
2018-06-20T18:45:29.920Z,25.63
2018-06-20T18:48:33.664Z,25.40
2018-06-20T18:51:37.273Z,25.23
2018-06-20T18:54:41.143Z,25.13
2018-06-20T18:57:49.813Z,24.91
2018-06-20T19:00:58.567Z,24.77
2018-06-20T19:04:07.545Z,24.70
2018-06-20T19:07:16.528Z,24.58
2018-06-20T19:10:20.499Z,24.49
2018-06-20T19:13:24.247Z,24.34
2018-06-20T19:16:27.929Z,24.23
2018-06-20T19:19:31.908Z,24.19
2018-06-20T19:22:35.677Z,24.17
2018-06-20T19:25:39.504Z,24.04
2018-06-20T19:28:43.162Z,23.95
2018-06-20T19:31:47.031Z,23.76
2018-06-20T19:34:50.790Z,23.60
2018-06-20T19:37:54.454Z,23.64
2018-06-20T19:40:58.178Z,23.50
2018-06-20T19:44:06.962Z,23.40
2018-06-20T19:47:10.829Z,23.42
2018-06-20T19:50:14.538Z,23.34
2018-06-20T19:53:18.245Z,23.22
2018-06-20T19:56:21.984Z,23.16
2018-06-20T19:59:25.709Z,23.14
2018-06-20T20:02:29.509Z,23.11
2018-06-20T20:05:33.240Z,23.01
2018-06-20T20:08:37.056Z,22.92
2018-06-20T20:11:40.809Z,22.86
2018-06-20T20:14:44.450Z,22.67
2018-06-20T20:17:48.270Z,22.65
2018-06-20T20:20:51.993Z,22.58
2018-06-20T20:23:55.831Z,22.62
2018-06-20T20:26:59.676Z,22.52
2018-06-20T20:30:03.411Z,22.54
2018-06-20T20:33:07.093Z,22.53
2018-06-20T20:36:10.853Z,22.47
2018-06-20T20:39:14.549Z,22.40
2018-06-20T20:42:18.239Z,22.44
2018-06-20T20:45:21.902Z,22.38
2018-06-20T20:48:25.580Z,22.37
2018-06-20T20:51:29.269Z,22.40
2018-06-20T20:54:32.995Z,22.35
2018-06-20T20:57:36.742Z,22.32
2018-06-20T21:00:40.559Z,22.17
2018-06-20T21:03:44.459Z,22.05
2018-06-20T21:06:48.239Z,21.96
2018-06-20T21:09:52.074Z,21.91
2018-06-20T21:12:55.799Z,21.83
2018-06-20T21:15:59.437Z,21.78
2018-06-20T21:19:03.115Z,21.70
2018-06-20T21:22:07.029Z,21.62
2018-06-20T21:25:10.883Z,21.52
2018-06-20T21:28:14.540Z,21.33
2018-06-20T21:31:18.285Z,21.23
2018-06-20T21:34:22.033Z,21.17
2018-06-20T21:37:25.826Z,21.01
2018-06-20T21:40:29.473Z,20.81
2018-06-20T21:43:33.194Z,20.70
2018-06-20T21:46:36.889Z,20.74
2018-06-20T21:49:40.650Z,20.62
2018-06-20T21:52:44.361Z,20.57
2018-06-20T21:55:48.014Z,20.47
2018-06-20T21:58:51.729Z,20.51
2018-06-20T22:01:55.518Z,20.45
2018-06-20T22:08:25.656Z,20.36
2018-06-20T22:11:33.535Z,20.45
2018-06-20T22:14:37.210Z,20.50
2018-06-20T22:17:41.001Z,20.51
2018-06-20T22:20:44.694Z,20.44
2018-06-20T22:23:48.438Z,20.41
2018-06-20T22:26:52.048Z,20.39
2018-06-20T22:29:55.859Z,20.27
2018-06-20T22:32:59.776Z,20.17
2018-06-20T22:36:03.559Z,20.22
2018-06-20T22:39:09.055Z,20.13
2018-06-20T22:42:12.776Z,20.13
2018-06-20T22:45:16.548Z,20.10
2018-06-20T22:48:20.264Z,20.01
2018-06-20T22:51:23.924Z,19.88
2018-06-20T22:54:27.659Z,20.01
2018-06-20T22:57:31.259Z,19.88
2018-06-20T23:00:34.851Z,19.87
2018-06-20T23:03:38.488Z,19.80
2018-06-20T23:06:42.203Z,19.77
2018-06-20T23:09:45.825Z,19.77
2018-06-20T23:12:49.538Z,19.68
2018-06-20T23:15:53.121Z,19.61
2018-06-20T23:18:56.759Z,19.47
2018-06-20T23:22:00.630Z,19.48
2018-06-20T23:25:04.419Z,19.59
2018-06-20T23:28:08.084Z,19.52
2018-06-20T23:31:11.746Z,19.45
2018-06-20T23:34:15.316Z,19.43
2018-06-20T23:37:18.941Z,19.42
2018-06-20T23:40:22.558Z,19.39
2018-06-20T23:43:26.264Z,19.30
2018-06-20T23:46:29.867Z,19.26
2018-06-20T23:49:33.509Z,19.28
2018-06-20T23:52:37.231Z,19.18
2018-06-20T23:55:40.775Z,19.21
2018-06-20T23:58:44.440Z,19.18
